createdAt,value
2023-03-27T04:50:44.874Z,25.65
2023-03-27T07:37:40.871Z,27.91
2023-03-27T07:41:40.789Z,26.14
2023-03-27T07:45:41.141Z,26.76
2023-03-27T07:49:40.749Z,26.77
2023-03-27T07:53:41.090Z,26.79
2023-03-27T07:57:57.237Z,26.86
2023-03-27T08:01:41.749Z,26.92
2023-03-27T08:05:42.568Z,26.86
2023-03-27T08:09:40.984Z,26.86
2023-03-27T08:13:41.082Z,26.79
2023-03-27T08:17:41.329Z,26.91
2023-03-27T08:21:41.314Z,25.93
2023-03-27T08:25:41.609Z,25.27
2023-03-27T08:29:42.107Z,25.60
2023-03-27T08:33:41.663Z,25.58
2023-03-27T08:37:41.946Z,25.43
2023-03-27T08:41:42.586Z,25.73
2023-03-27T08:45:42.103Z,26.19
2023-03-27T08:49:42.097Z,25.52
2023-03-27T08:53:43.701Z,25.44
2023-03-27T08:57:42.135Z,24.70
2023-03-27T09:01:41.883Z,24.07
2023-03-27T09:05:41.872Z,24.94
2023-03-27T09:09:54.306Z,25.33
2023-03-27T09:13:42.031Z,25.58
2023-03-27T09:17:42.048Z,25.70
2023-03-27T09:21:41.929Z,25.71
2023-03-27T09:25:41.911Z,25.77
2023-03-27T09:29:42.148Z,25.75
2023-03-27T09:33:42.636Z,25.98
2023-03-27T09:37:42.241Z,23.34
2023-03-27T09:41:41.756Z,24.64
2023-03-27T09:45:41.748Z,25.33
2023-03-27T09:49:42.174Z,25.65
2023-03-27T09:53:42.668Z,25.87
2023-03-27T09:57:41.684Z,25.88
2023-03-27T10:01:41.897Z,26.11
2023-03-27T10:05:41.784Z,26.06
2023-03-27T10:09:41.748Z,26.14
2023-03-27T10:13:41.852Z,26.11
2023-03-27T10:17:42.185Z,26.29
2023-03-27T10:21:42.197Z,26.54
2023-03-27T10:25:43.190Z,26.94
2023-03-27T10:29:42.671Z,25.19
2023-03-27T10:33:42.731Z,21.74
2023-03-27T10:37:50.101Z,21.44
2023-03-27T10:41:43.698Z,22.07
2023-03-27T10:45:42.732Z,22.54
2023-03-27T10:49:42.742Z,22.51
2023-03-27T10:53:42.677Z,22.61
2023-03-27T10:57:42.591Z,22.60
2023-03-27T11:01:42.770Z,22.57
2023-03-27T11:05:42.579Z,22.50
2023-03-27T11:09:42.523Z,22.56
2023-03-27T11:13:42.418Z,22.62
2023-03-27T11:17:42.678Z,22.82
2023-03-27T11:21:42.700Z,22.89
2023-03-27T11:25:42.325Z,22.91
2023-03-27T11:29:42.284Z,22.99
2023-03-27T11:33:42.269Z,23.10
2023-03-27T11:37:42.640Z,23.15
2023-03-27T11:41:42.219Z,23.23
2023-03-27T11:45:42.201Z,23.36
2023-03-27T11:49:42.122Z,23.36
2023-03-27T11:53:42.147Z,23.46
2023-03-27T11:57:42.211Z,23.42
2023-03-27T12:01:42.172Z,23.42
2023-03-27T12:05:42.216Z,23.50
2023-03-27T12:09:42.148Z,23.57
2023-03-27T12:13:42.835Z,23.67
2023-03-27T12:17:42.255Z,23.79
2023-03-27T12:21:42.322Z,23.90
2023-03-27T12:25:42.432Z,23.97
2023-03-27T12:29:42.556Z,23.98
2023-03-27T12:33:42.612Z,24.08
2023-03-27T12:37:42.777Z,24.12
2023-03-27T12:41:42.796Z,24.12
2023-03-27T12:45:53.046Z,24.16
2023-03-27T12:49:48.159Z,24.15
2023-03-27T12:53:42.885Z,24.22
2023-03-27T12:57:43.053Z,24.23
2023-03-27T13:01:51.597Z,24.22
2023-03-27T13:05:43.784Z,24.23
2023-03-27T13:09:42.707Z,24.17
2023-03-27T13:13:42.680Z,24.17
2023-03-27T13:17:42.632Z,24.08
2023-03-27T13:21:42.594Z,24.06
2023-03-27T13:25:42.558Z,24.08
2023-03-27T13:29:42.496Z,24.04
2023-03-27T13:33:42.612Z,23.92
2023-03-27T13:37:42.758Z,23.96
2023-03-27T13:41:43.213Z,23.90
2023-03-27T13:45:43.233Z,24.06
2023-03-27T13:49:42.770Z,24.09
2023-03-27T13:53:42.781Z,24.04
2023-03-27T13:57:42.982Z,23.86
2023-03-27T14:01:43.261Z,23.68
2023-03-27T14:05:43.380Z,23.55
2023-03-27T14:09:43.469Z,23.53
2023-03-27T14:13:43.599Z,23.58
2023-03-27T14:17:43.793Z,23.66
2023-03-27T14:21:43.978Z,23.76
2023-03-27T14:25:43.973Z,23.89
2023-03-27T14:29:43.896Z,23.95
2023-03-27T14:33:43.857Z,23.95
2023-03-27T14:37:43.857Z,23.99
2023-03-27T14:41:43.856Z,24.02
2023-03-27T14:45:43.847Z,23.86
2023-03-27T14:49:43.729Z,23.85
2023-03-27T14:53:43.699Z,23.80
2023-03-27T14:57:43.674Z,23.61
2023-03-27T15:01:43.657Z,23.61
2023-03-27T15:05:43.569Z,23.69
2023-03-27T15:09:43.610Z,23.73
2023-03-27T15:13:43.814Z,23.66
2023-03-27T15:17:44.003Z,23.66
2023-03-27T15:21:44.098Z,23.60
2023-03-27T15:25:44.284Z,23.73
2023-03-27T15:29:44.442Z,23.81
2023-03-27T15:33:44.467Z,23.86
2023-03-27T15:37:44.433Z,23.84
2023-03-27T15:41:44.417Z,23.70
2023-03-27T15:45:44.406Z,23.69
2023-03-27T15:49:44.308Z,23.79
2023-03-27T15:53:44.284Z,23.88
2023-03-27T15:57:44.254Z,23.93
2023-03-27T16:01:44.270Z,23.97
2023-03-27T16:05:44.171Z,24.05
2023-03-27T16:09:44.181Z,24.16
2023-03-27T16:13:44.144Z,24.17
2023-03-27T16:17:44.166Z,24.27
2023-03-27T16:21:44.067Z,24.32
2023-03-27T16:25:44.009Z,24.34
2023-03-27T16:29:44.046Z,24.41
2023-03-27T16:33:43.964Z,24.42
2023-03-27T16:37:43.963Z,24.45
2023-03-27T16:41:44.006Z,24.39
2023-03-27T16:45:44.037Z,24.39
2023-03-27T16:49:44.074Z,24.46
2023-03-27T16:53:44.174Z,24.50
2023-03-27T16:57:44.195Z,24.51
2023-03-27T17:01:44.271Z,24.51
2023-03-27T17:05:44.363Z,24.62
2023-03-27T17:09:44.420Z,24.58
2023-03-27T17:13:44.532Z,24.61
2023-03-27T17:17:44.588Z,24.59
2023-03-27T17:21:44.718Z,24.64
2023-03-27T17:25:44.822Z,24.67
2023-03-27T17:29:44.941Z,24.67
2023-03-27T17:33:45.048Z,24.65
2023-03-27T17:37:45.217Z,24.65
2023-03-27T17:41:45.256Z,24.64
2023-03-27T17:45:45.466Z,24.66
2023-03-27T17:49:45.565Z,24.75
2023-03-27T17:53:45.728Z,24.65
2023-03-27T17:57:49.097Z,24.63
2023-03-27T18:01:46.812Z,24.73
2023-03-27T18:05:45.717Z,24.78
2023-03-27T18:09:45.722Z,24.76
2023-03-27T18:13:45.825Z,24.81
2023-03-27T18:17:46.065Z,24.81
2023-03-27T18:21:46.218Z,24.79
2023-03-27T18:25:46.375Z,24.78
2023-03-27T18:29:46.600Z,24.89
2023-03-27T18:33:46.724Z,24.90
2023-03-27T18:37:46.921Z,24.87
2023-03-27T18:41:46.916Z,24.75
2023-03-27T18:45:46.866Z,24.76
2023-03-27T18:49:46.801Z,24.53
2023-03-27T18:53:46.781Z,24.45
2023-03-27T18:57:46.757Z,24.34
2023-03-27T19:01:46.796Z,24.15
2023-03-27T19:05:46.630Z,24.08
2023-03-27T19:09:46.615Z,24.21
2023-03-27T19:13:46.589Z,24.28
2023-03-27T19:17:46.726Z,24.28
2023-03-27T19:21:46.597Z,24.30
2023-03-27T19:25:46.528Z,24.37
2023-03-27T19:29:46.493Z,24.36
2023-03-27T19:33:46.436Z,24.30
2023-03-27T19:37:46.394Z,24.40
2023-03-27T19:41:46.342Z,24.43
2023-03-27T19:45:46.360Z,24.48
2023-03-27T19:49:46.333Z,24.52
2023-03-27T19:53:46.366Z,24.55
2023-03-27T19:57:46.233Z,24.60
2023-03-27T20:01:46.216Z,24.58
2023-03-27T20:05:46.333Z,24.66
2023-03-27T20:09:46.159Z,24.67
2023-03-27T20:13:56.113Z,24.71
2023-03-27T20:17:47.446Z,24.73
2023-03-27T20:21:46.015Z,24.76
2023-03-27T20:25:46.032Z,24.74
2023-03-27T20:29:45.939Z,24.82
2023-03-27T20:33:45.909Z,24.84
2023-03-27T20:37:45.887Z,24.84
2023-03-27T20:41:45.855Z,24.86
2023-03-27T20:45:45.898Z,24.92
2023-03-27T20:49:45.798Z,24.88
2023-03-27T20:53:45.784Z,24.89
2023-03-27T20:57:45.723Z,24.96
2023-03-27T21:01:45.743Z,24.96
2023-03-27T21:05:45.660Z,25.00
2023-03-27T21:09:45.606Z,24.97
2023-03-27T21:13:45.633Z,25.07
2023-03-27T21:17:45.576Z,25.05
2023-03-27T21:21:45.638Z,25.08
2023-03-27T21:25:45.496Z,25.11
2023-03-27T21:29:45.409Z,25.09
2023-03-27T21:33:45.452Z,25.13
2023-03-27T21:37:45.586Z,25.12
2023-03-27T21:41:45.432Z,25.12
2023-03-27T21:45:45.464Z,25.17
2023-03-27T21:49:45.357Z,25.23
2023-03-27T21:53:45.317Z,25.24
2023-03-27T21:57:45.305Z,25.23
2023-03-27T22:01:45.290Z,25.28
2023-03-27T22:05:54.280Z,25.27
2023-03-27T22:09:46.195Z,25.28
2023-03-27T22:13:45.141Z,25.32
2023-03-27T22:17:45.181Z,25.36
2023-03-27T22:21:45.049Z,25.38
2023-03-27T22:25:45.015Z,25.35
2023-03-27T22:29:45.444Z,25.40
2023-03-27T22:33:45.182Z,25.39
2023-03-27T22:37:45.306Z,25.40
2023-03-27T22:41:45.394Z,25.44
2023-03-27T22:45:45.476Z,25.43
2023-03-27T22:49:45.588Z,25.44
2023-03-27T22:53:45.713Z,25.48
2023-03-27T22:57:45.815Z,25.44
2023-03-27T23:01:45.962Z,25.51
2023-03-27T23:05:46.011Z,25.45
2023-03-27T23:09:46.131Z,25.50
2023-03-27T23:13:46.220Z,25.55
2023-03-27T23:17:46.446Z,25.52
2023-03-27T23:21:46.488Z,25.51
2023-03-27T23:25:46.668Z,25.57
2023-03-27T23:29:46.784Z,25.58
2023-03-27T23:33:46.919Z,25.54
2023-03-27T23:37:47.092Z,25.58
2023-03-27T23:41:47.237Z,25.56
2023-03-27T23:45:47.388Z,25.59
2023-03-27T23:49:47.482Z,25.62
2023-03-27T23:53:47.664Z,25.63
2023-03-27T23:57:47.813Z,25.67
